Abbott, Pennsylvania
Current Conditions -  °F | °C
As of 1:35 PM on Thursday 23 Oct 2014 (Local Time) from KN38 Reporting Station
Overcast Overcast  
Wind Chill: 54°   Ceiling: 2900
Heat Index: 54°   Visibility: 10mi
Dew Point: 43°   Wind: 22mph
Humidity: 67%   Direction: 360°N
Pressure: 29.93"   Gusts: 33mph
Location:  41.6755°N, 77.7071°W
Report Text: KN38 231735Z AUTO 36019G29KT 10SM OVC029 12/06 A2993 RMK AO2
Loading
Personal Weather Stations






























Interactive Weather Map
Tropical Storm Tracking
New forecast layout! Learn more

10-Day Weather Forecast

Advertisements
Track Severe Weather on mobile